To NAV CANADA Home Page Login to a new session Search on AWWS site Feedback and Comments Disclaimer Vers la page française équivalente Tips FAQ What's new on the site To the Forecasts and Observations / NOTAM section To "File a Flight Plan" website Publications and other links Update of the User's profile FIC Telephone Numbers My Weather Data Folder Route Weather Data Regional Weather Data Local Weather Data To the Forecasts and Observations / NOTAM section
Request Generated 08/22/2017 at 01:36:36 UTC . Weather information available at that time is displayed.

METAR/TAF

ARVIAT/NU    (show WxCam)

METAR CYEK 220100Z AUTO 04010KT 9SM CLR 09/07 A3001 RMK SLP166=
METAR CYEK 220000Z AUTO 05012KT 9SM CLR 09/08 A3000 RMK SLP161=
METAR CYEK 212300Z AUTO 05014KT 9SM CLR 10/08 A2999 RMK SLP157=

TAF CYEK 212338Z 2200/2212 05015G25KT P6SM SKC
BECMG 2200/2202 02010KT
RMK NXT FCST BY 220600Z=
Your time UTC time
Weather data provided by Environment Canada and NAV CANADA